Time;durP1;ratioP1;P1;durP2;ratioP2;P2;SDS_P1;SDS_P2;PMS_P1;PMS_P2;Temp;Humidity;BMP_temperature;BMP_pressure;BME280_temperature;BME280_humidity;BME280_pressure;Samples;Min_cycle;Max_cycle;Signal;HPM_P1;HPM_P2
2022/10/20 00:00:56;;;;;;;;;;;7.60;99.90;;;;;;5072660;28;19998;-72
2022/10/20 00:03:22;;;;;;;;;;;7.60;99.90;;;;;;5074247;28;20015;-72
2022/10/20 00:05:48;;;;;;;;;;;7.60;99.90;;;;;;5106707;28;20283;-71
2022/10/20 00:08:13;;;;;;;;;;;7.60;99.90;;;;;;5073934;28;19950;-71
2022/10/20 00:10:39;;;;;;;;;;;7.50;99.90;;;;;;5106762;28;19924;-72
2022/10/20 00:13:05;;;;;;;;;;;7.50;99.90;;;;;;5073988;28;19967;-72
2022/10/20 00:15:30;;;;;;;;;;;7.50;99.90;;;;;;5108837;28;19932;-71
2022/10/20 00:17:56;;;;;;;;;;;7.50;99.90;;;;;;5072855;28;19931;-71
2022/10/20 00:20:21;;;;;;;;;;;7.40;99.90;;;;;;5088491;28;19948;-72
2022/10/20 00:22:47;;;;;;;;;;;7.40;99.90;;;;;;5106334;28;19931;-70
2022/10/20 00:25:13;;;;;;;;;;;7.40;99.90;;;;;;5073314;28;19931;-70
2022/10/20 00:27:39;;;;;;;;;;;7.30;99.90;;;;;;5089557;28;19934;-72
2022/10/20 00:30:05;;;;;;;;;;;7.40;99.90;;;;;;5089138;28;19924;-71
2022/10/20 00:32:30;;;;;;;;;;;7.30;99.90;;;;;;5072426;28;20015;-72
2022/10/20 00:34:56;;;;;;;;;;;7.30;99.90;;;;;;5073267;28;19954;-71
2022/10/20 00:37:21;;;;;;;;;;;7.30;99.90;;;;;;5073156;28;20432;-71
2022/10/20 00:39:47;;;;;;;;;;;7.20;99.90;;;;;;5071639;28;20007;-72
2022/10/20 00:42:15;;;;;;;;;;;7.20;99.90;;;;;;5071669;28;20011;-71
2022/10/20 00:44:49;;;;;;;;;;;7.20;99.90;;;;;;5073259;28;19928;-71
2022/10/20 00:47:19;;;;;;;;;;;7.20;99.90;;;;;;5071764;28;19928;-71
2022/10/20 00:49:46;;;;;;;;;;;7.10;99.90;;;;;;5073183;28;19983;-71
2022/10/20 00:52:12;;;;;;;;;;;7.10;99.90;;;;;;5071392;28;20109;-72
2022/10/20 00:54:37;;;;;;;;;;;7.20;99.90;;;;;;5072203;28;19924;-71
2022/10/20 00:57:03;;;;;;;;;;;7.10;99.90;;;;;;5072675;28;19940;-70
2022/10/20 00:59:32;;;;;;;;;;;7.10;99.90;;;;;;5071812;28;19936;-71
2022/10/20 01:01:58;;;;;;;;;;;7.10;99.90;;;;;;5071517;28;20007;-72
2022/10/20 01:04:26;;;;;;;;;;;7.10;99.90;;;;;;5072885;28;19966;-70
2022/10/20 01:06:52;;;;;;;;;;;7.10;99.90;;;;;;5105798;28;20386;-72
2022/10/20 01:09:17;;;;;;;;;;;7.00;99.90;;;;;;5105602;28;19975;-71
2022/10/20 01:11:46;;;;;;;;;;;7.10;99.90;;;;;;5072571;28;19970;-72
2022/10/20 01:14:11;;;;;;;;;;;7.00;99.90;;;;;;5071198;28;20042;-72
2022/10/20 01:16:40;;;;;;;;;;;7.00;99.90;;;;;;5088516;28;19928;-71
2022/10/20 01:19:08;;;;;;;;;;;7.00;99.90;;;;;;5072592;28;19931;-71
2022/10/20 01:21:37;;;;;;;;;;;7.00;99.90;;;;;;5071743;28;20019;-72
2022/10/20 01:24:11;;;;;;;;;;;7.00;99.90;;;;;;5072259;28;19968;-71
2022/10/20 01:26:37;;;;;;;;;;;7.00;99.90;;;;;;5072488;28;20023;-71
2022/10/20 01:29:02;;;;;;;;;;;7.00;99.90;;;;;;5072210;28;20021;-71
2022/10/20 01:31:31;;;;;;;;;;;7.00;99.90;;;;;;5072057;28;20395;-70
2022/10/20 01:34:17;;;;;;;;;;;7.00;99.90;;;;;;5070990;28;20366;-69
2022/10/20 01:36:48;;;;;;;;;;;7.00;99.90;;;;;;5074649;28;19925;-71
2022/10/20 01:39:39;;;;;;;;;;;7.20;99.90;;;;;;5078639;28;19976;-73
2022/10/20 01:42:12;;;;;;;;;;;7.00;99.90;;;;;;5052740;28;19924;-71
2022/10/20 01:44:38;;;;;;;;;;;7.00;99.90;;;;;;5104919;28;20290;-71
2022/10/20 01:47:04;;;;;;;;;;;7.00;99.90;;;;;;5071224;28;20016;-72
2022/10/20 01:49:30;;;;;;;;;;;6.90;99.90;;;;;;5072234;28;19925;-72
2022/10/20 01:51:55;;;;;;;;;;;6.90;99.90;;;;;;5072104;28;19924;-72
2022/10/20 01:54:26;;;;;;;;;;;7.00;99.90;;;;;;5070443;28;20389;-71
2022/10/20 01:56:57;;;;;;;;;;;6.90;99.90;;;;;;5070959;28;20428;-72
2022/10/20 01:59:40;;;;;;;;;;;6.90;99.90;;;;;;5070949;28;19924;-72
2022/10/20 02:02:14;;;;;;;;;;;6.90;99.90;;;;;;5071874;28;19986;-71
2022/10/20 02:04:58;;;;;;;;;;;6.90;99.90;;;;;;5070697;28;19932;-71
2022/10/20 02:07:26;;;;;;;;;;;6.90;99.90;;;;;;5086984;28;20379;-72
2022/10/20 02:09:54;;;;;;;;;;;6.80;99.90;;;;;;5071072;28;19936;-72
2022/10/20 02:12:32;;;;;;;;;;;6.80;99.90;;;;;;5104232;28;19932;-72
2022/10/20 02:14:58;;;;;;;;;;;6.90;99.90;;;;;;5071757;28;19967;-71
2022/10/20 02:17:24;;;;;;;;;;;7.00;99.90;;;;;;5104509;28;20299;-71
2022/10/20 02:19:51;;;;;;;;;;;6.80;99.90;;;;;;5071169;28;19925;-71
2022/10/20 02:22:18;;;;;;;;;;;6.80;99.90;;;;;;5070805;28;19931;-72
2022/10/20 02:24:43;;;;;;;;;;;6.80;99.90;;;;;;5104828;28;20291;-72
2022/10/20 02:27:12;;;;;;;;;;;6.80;99.90;;;;;;5070250;28;19932;-72
2022/10/20 02:29:40;;;;;;;;;;;6.70;99.90;;;;;;5071890;28;19964;-71
2022/10/20 02:32:07;;;;;;;;;;;6.70;99.90;;;;;;5071571;28;19932;-71
2022/10/20 02:34:33;;;;;;;;;;;6.70;99.90;;;;;;5070638;28;19924;-71
2022/10/20 02:36:58;;;;;;;;;;;6.70;99.90;;;;;;5070677;28;20390;-71
2022/10/20 02:39:24;;;;;;;;;;;6.60;99.90;;;;;;5071351;28;19955;-71
2022/10/20 02:41:50;;;;;;;;;;;6.70;99.90;;;;;;5087318;28;19931;-72
2022/10/20 02:44:16;;;;;;;;;;;6.70;99.90;;;;;;5105796;28;19929;-72
2022/10/20 02:46:42;;;;;;;;;;;6.70;99.90;;;;;;5108258;28;20381;-72
2022/10/20 02:49:08;;;;;;;;;;;6.60;99.90;;;;;;5075522;28;20286;-70
2022/10/20 02:51:33;;;;;;;;;;;6.60;99.90;;;;;;5075455;28;20459;-72
2022/10/20 02:53:59;;;;;;;;;;;6.70;99.90;;;;;;5075519;28;20011;-72
2022/10/20 02:56:24;;;;;;;;;;;6.60;99.90;;;;;;5090820;28;19924;-72
2022/10/20 02:58:50;;;;;;;;;;;6.70;99.90;;;;;;5074379;28;19924;-72
2022/10/20 03:01:16;;;;;;;;;;;6.60;99.90;;;;;;5074219;28;19932;-72
2022/10/20 03:03:41;;;;;;;;;;;6.60;99.90;;;;;;5112732;28;19928;-72
2022/10/20 03:06:14;;;;;;;;;;;6.60;99.90;;;;;;5111156;28;19955;-70
2022/10/20 03:08:40;;;;;;;;;;;6.60;99.90;;;;;;5090861;28;20394;-73
2022/10/20 03:11:05;;;;;;;;;;;6.60;99.90;;;;;;5074839;28;19925;-72
2022/10/20 03:13:31;;;;;;;;;;;6.60;99.90;;;;;;5090728;28;19932;-72
2022/10/20 03:15:56;;;;;;;;;;;6.60;99.90;;;;;;5090782;28;20448;-72
2022/10/20 03:18:22;;;;;;;;;;;6.60;99.90;;;;;;5107447;28;19929;-72
2022/10/20 03:20:51;;;;;;;;;;;6.60;99.90;;;;;;5074102;28;19944;-71
2022/10/20 03:23:17;;;;;;;;;;;6.60;99.90;;;;;;5074551;28;19955;-71
2022/10/20 03:25:42;;;;;;;;;;;6.60;99.90;;;;;;5090913;28;20022;-72
2022/10/20 03:28:08;;;;;;;;;;;6.60;99.90;;;;;;5074852;28;19974;-72
2022/10/20 03:30:33;;;;;;;;;;;6.60;99.90;;;;;;5089954;28;19924;-72
2022/10/20 03:32:59;;;;;;;;;;;6.60;99.90;;;;;;5074799;28;19928;-72
2022/10/20 03:35:25;;;;;;;;;;;6.80;99.90;;;;;;5073523;28;19972;-72
2022/10/20 03:37:50;;;;;;;;;;;6.60;99.90;;;;;;5090271;28;19980;-73
2022/10/20 03:40:16;;;;;;;;;;;6.60;99.90;;;;;;5107178;28;20260;-71
2022/10/20 03:42:41;;;;;;;;;;;6.70;99.90;;;;;;5090215;28;19924;-73
2022/10/20 03:45:07;;;;;;;;;;;6.70;99.90;;;;;;5073713;28;19924;-72
2022/10/20 03:47:33;;;;;;;;;;;6.60;99.90;;;;;;5107016;28;20462;-72
2022/10/20 03:49:58;;;;;;;;;;;6.70;99.90;;;;;;5073491;28;20031;-71
2022/10/20 03:52:24;;;;;;;;;;;6.70;99.90;;;;;;5074072;28;19924;-72
2022/10/20 03:54:49;;;;;;;;;;;6.70;99.90;;;;;;5073239;28;19928;-72
2022/10/20 03:57:15;;;;;;;;;;;6.70;99.90;;;;;;5074009;28;19931;-71
2022/10/20 03:59:41;;;;;;;;;;;6.70;99.90;;;;;;5107046;28;19932;-72
2022/10/20 04:02:06;;;;;;;;;;;6.70;99.90;;;;;;5089589;28;19924;-71
2022/10/20 04:04:32;;;;;;;;;;;6.70;99.90;;;;;;5089619;28;19932;-72
2022/10/20 04:06:57;;;;;;;;;;;6.60;99.90;;;;;;5090151;28;19931;-72
2022/10/20 04:09:23;;;;;;;;;;;6.60;99.90;;;;;;5105679;28;19924;-72
2022/10/20 04:11:49;;;;;;;;;;;6.60;99.90;;;;;;5072703;28;19940;-72
2022/10/20 04:14:14;;;;;;;;;;;6.60;99.90;;;;;;5073800;28;19930;-72
2022/10/20 04:16:40;;;;;;;;;;;6.60;99.90;;;;;;5089598;28;20040;-73
2022/10/20 04:19:06;;;;;;;;;;;6.60;99.90;;;;;;5072725;28;19986;-72
2022/10/20 04:21:32;;;;;;;;;;;6.50;99.90;;;;;;5072843;28;19924;-72
2022/10/20 04:23:57;;;;;;;;;;;6.50;99.90;;;;;;5078137;28;20305;-73
2022/10/20 04:26:23;;;;;;;;;;;6.50;99.90;;;;;;5080390;28;19931;-73
2022/10/20 04:28:48;;;;;;;;;;;6.50;99.90;;;;;;5089871;28;19928;-73
2022/10/20 04:31:14;;;;;;;;;;;6.50;99.90;;;;;;5106349;28;20017;-74
2022/10/20 04:33:39;;;;;;;;;;;6.70;99.90;;;;;;5073402;28;19927;-72
2022/10/20 04:36:07;;;;;;;;;;;6.30;99.90;;;;;;5106320;28;19924;-71
2022/10/20 04:38:33;;;;;;;;;;;6.50;99.90;;;;;;5071885;28;20011;-71
2022/10/20 04:40:59;;;;;;;;;;;6.50;99.90;;;;;;5073680;28;19939;-72
2022/10/20 04:43:25;;;;;;;;;;;6.50;99.90;;;;;;5072047;28;19978;-73
2022/10/20 04:45:52;;;;;;;;;;;6.40;99.90;;;;;;5072207;28;20051;-74
2022/10/20 04:48:18;;;;;;;;;;;6.50;99.90;;;;;;5072586;28;19934;-73
2022/10/20 04:50:44;;;;;;;;;;;6.40;99.90;;;;;;5072660;28;20011;-72
2022/10/20 04:53:09;;;;;;;;;;;6.50;99.90;;;;;;5089102;28;20007;-72
2022/10/20 04:55:35;;;;;;;;;;;6.40;99.90;;;;;;5105954;28;20364;-73
2022/10/20 04:58:01;;;;;;;;;;;6.40;99.90;;;;;;5106114;28;19924;-73
2022/10/20 05:00:26;;;;;;;;;;;6.40;99.90;;;;;;5072748;28;19925;-71
2022/10/20 05:02:52;;;;;;;;;;;6.40;99.90;;;;;;5106147;28;20326;-73
2022/10/20 05:05:17;;;;;;;;;;;6.40;99.90;;;;;;5088858;28;19924;-73
2022/10/20 05:07:43;;;;;;;;;;;6.40;99.90;;;;;;5105061;28;20089;-72
2022/10/20 05:10:08;;;;;;;;;;;6.40;99.90;;;;;;5073145;28;20394;-73
2022/10/20 05:12:34;;;;;;;;;;;6.40;99.90;;;;;;5072463;28;20265;-72
2022/10/20 05:14:59;;;;;;;;;;;6.40;99.90;;;;;;5105613;28;20033;-72
2022/10/20 05:17:27;;;;;;;;;;;6.50;99.90;;;;;;5071664;28;19928;-70
2022/10/20 05:19:52;;;;;;;;;;;6.40;99.90;;;;;;5071825;28;19979;-72
2022/10/20 05:22:18;;;;;;;;;;;6.50;99.90;;;;;;5088443;28;20029;-72
2022/10/20 05:24:43;;;;;;;;;;;6.40;99.90;;;;;;5087854;28;19974;-73
2022/10/20 05:27:09;;;;;;;;;;;6.40;99.90;;;;;;5087871;28;19931;-71
2022/10/20 05:29:35;;;;;;;;;;;6.40;99.90;;;;;;5070970;28;19970;-71
2022/10/20 05:32:00;;;;;;;;;;;6.40;99.90;;;;;;5104516;28;19928;-72
2022/10/20 05:34:26;;;;;;;;;;;6.30;99.90;;;;;;5088392;28;20375;-72
2022/10/20 05:36:52;;;;;;;;;;;6.30;99.90;;;;;;5071339;28;19925;-74
2022/10/20 05:39:17;;;;;;;;;;;6.30;99.90;;;;;;5104581;28;19925;-72
2022/10/20 05:41:43;;;;;;;;;;;6.30;99.90;;;;;;5070880;28;19967;-72
2022/10/20 05:44:10;;;;;;;;;;;6.30;99.90;;;;;;5071043;28;19981;-72
2022/10/20 05:46:40;;;;;;;;;;;6.30;99.90;;;;;;5070938;28;20282;-71
2022/10/20 05:49:06;;;;;;;;;;;6.30;99.90;;;;;;5079456;28;20017;-73
2022/10/20 05:51:35;;;;;;;;;;;6.30;99.90;;;;;;5098923;28;20313;-70
2022/10/20 05:54:01;;;;;;;;;;;6.30;99.90;;;;;;5073209;28;19928;-72
2022/10/20 05:56:27;;;;;;;;;;;6.30;99.90;;;;;;5105047;28;19954;-73
2022/10/20 05:58:54;;;;;;;;;;;6.30;99.90;;;;;;5070437;28;19924;-73
2022/10/20 06:01:23;;;;;;;;;;;6.30;99.90;;;;;;5087710;28;19931;-72
2022/10/20 06:03:51;;;;;;;;;;;6.50;99.90;;;;;;5071725;28;19935;-71
2022/10/20 06:06:17;;;;;;;;;;;6.30;99.90;;;;;;5070852;28;20447;-73
2022/10/20 06:08:43;;;;;;;;;;;6.40;99.90;;;;;;5071497;28;20395;-73
2022/10/20 06:11:09;;;;;;;;;;;6.50;99.90;;;;;;5104593;28;20019;-73
2022/10/20 06:13:35;;;;;;;;;;;6.30;99.90;;;;;;5070692;28;20019;-72
2022/10/20 06:16:04;;;;;;;;;;;6.20;99.90;;;;;;5071604;28;19982;-73
2022/10/20 06:18:30;;;;;;;;;;;6.30;99.90;;;;;;5072699;28;20019;-73
2022/10/20 06:21:03;;;;;;;;;;;6.30;99.90;;;;;;5074885;28;19928;-72
2022/10/20 06:23:29;;;;;;;;;;;6.30;99.90;;;;;;5076189;28;19928;-73
2022/10/20 06:25:54;;;;;;;;;;;6.30;99.90;;;;;;5074159;28;19921;-73
2022/10/20 06:28:20;;;;;;;;;;;6.30;99.90;;;;;;5074374;28;19931;-71
2022/10/20 06:30:46;;;;;;;;;;;6.30;99.90;;;;;;5075605;28;19954;-74
2022/10/20 06:33:13;;;;;;;;;;;6.60;99.90;;;;;;5074665;28;20355;-72
2022/10/20 06:35:39;;;;;;;;;;;6.20;99.90;;;;;;5075180;28;20013;-70
2022/10/20 06:38:05;;;;;;;;;;;6.30;99.90;;;;;;5075209;28;20399;-70
2022/10/20 06:40:30;;;;;;;;;;;6.30;99.90;;;;;;5091619;28;19931;-70
2022/10/20 06:42:56;;;;;;;;;;;6.30;99.90;;;;;;5074263;28;19950;-70
2022/10/20 06:45:21;;;;;;;;;;;6.30;99.90;;;;;;5108269;28;19924;-72
2022/10/20 06:47:47;;;;;;;;;;;6.30;99.90;;;;;;5090748;28;20322;-71
2022/10/20 06:50:12;;;;;;;;;;;6.40;99.90;;;;;;5075195;28;19925;-71
2022/10/20 06:52:38;;;;;;;;;;;;;;;;;;5074865;28;20023;-70
2022/10/20 06:55:04;;;;;;;;;;;6.50;99.90;;;;;;5075529;28;19924;-71
2022/10/20 06:57:31;;;;;;;;;;;6.50;99.90;;;;;;5074330;28;20410;-71
2022/10/20 06:59:56;;;;;;;;;;;6.50;99.90;;;;;;5107922;28;19925;-71
2022/10/20 07:02:22;;;;;;;;;;;6.60;99.90;;;;;;5075198;28;19939;-72
2022/10/20 07:04:51;;;;;;;;;;;6.60;99.90;;;;;;5073545;28;20115;-70
2022/10/20 07:07:16;;;;;;;;;;;6.70;99.90;;;;;;5075896;28;19986;-73
2022/10/20 07:09:42;;;;;;;;;;;6.80;99.90;;;;;;5118839;28;19925;-74
2022/10/20 07:12:07;;;;;;;;;;;6.80;99.90;;;;;;5082319;28;20278;-73
2022/10/20 07:14:36;;;;;;;;;;;6.90;99.90;;;;;;5073819;28;19954;-73
2022/10/20 07:17:02;;;;;;;;;;;6.90;99.90;;;;;;5090667;28;19921;-72
2022/10/20 07:19:27;;;;;;;;;;;7.00;99.90;;;;;;5107897;28;19932;-73
2022/10/20 07:21:53;;;;;;;;;;;7.10;99.90;;;;;;5073609;28;19924;-76
2022/10/20 07:24:19;;;;;;;;;;;7.20;99.90;;;;;;5074757;28;19978;-73
2022/10/20 07:26:44;;;;;;;;;;;7.40;99.90;;;;;;5073569;28;19973;-73
2022/10/20 07:29:11;;;;;;;;;;;7.50;99.90;;;;;;5089657;28;20060;-71
2022/10/20 07:31:40;;;;;;;;;;;7.60;99.90;;;;;;5073442;28;20375;-71
2022/10/20 07:34:07;;;;;;;;;;;7.60;99.90;;;;;;5074326;28;19924;-72
2022/10/20 07:36:33;;;;;;;;;;;7.60;99.90;;;;;;5074702;28;19925;-71
2022/10/20 07:38:59;;;;;;;;;;;7.60;99.90;;;;;;5074044;28;19928;-70
2022/10/20 07:41:25;;;;;;;;;;;7.50;99.90;;;;;;5073531;28;19959;-69
2022/10/20 07:43:51;;;;;;;;;;;7.50;99.90;;;;;;5074188;28;19931;-71
2022/10/20 07:46:17;;;;;;;;;;;7.50;99.90;;;;;;5074486;28;20019;-71
2022/10/20 07:48:43;;;;;;;;;;;7.40;99.90;;;;;;5106866;28;19925;-71
2022/10/20 07:51:12;;;;;;;;;;;7.40;99.90;;;;;;5073797;28;19942;-70
2022/10/20 07:53:38;;;;;;;;;;;7.40;99.90;;;;;;5072398;28;20002;-72
2022/10/20 07:56:04;;;;;;;;;;;7.40;99.90;;;;;;5089090;28;20375;-71
2022/10/20 07:58:29;;;;;;;;;;;7.40;99.90;;;;;;5072601;28;19925;-72
2022/10/20 08:00:55;;;;;;;;;;;7.40;99.90;;;;;;5073471;28;19925;-70
2022/10/20 08:03:20;;;;;;;;;;;7.40;99.90;;;;;;5073069;28;19928;-71
2022/10/20 08:05:46;;;;;;;;;;;7.40;99.90;;;;;;5072777;28;19931;-69
2022/10/20 08:08:11;;;;;;;;;;;7.40;99.90;;;;;;5073889;28;19931;-70
2022/10/20 08:10:37;;;;;;;;;;;7.40;99.90;;;;;;5089855;28;20386;-71
2022/10/20 08:13:03;;;;;;;;;;;7.40;99.90;;;;;;5106422;28;19924;-71
2022/10/20 08:15:28;;;;;;;;;;;7.50;99.90;;;;;;5106334;28;19928;-71
2022/10/20 08:17:54;;;;;;;;;;;7.50;99.90;;;;;;5072420;28;20016;-71
2022/10/20 08:20:20;;;;;;;;;;;7.60;99.90;;;;;;5072823;28;19924;-72
2022/10/20 08:22:46;;;;;;;;;;;7.60;99.90;;;;;;5073663;28;19931;-74
2022/10/20 08:25:13;;;;;;;;;;;7.70;99.90;;;;;;5088712;28;20311;-74
2022/10/20 08:27:38;;;;;;;;;;;7.90;99.90;;;;;;5072509;28;19935;-71
2022/10/20 08:30:04;;;;;;;;;;;7.90;99.90;;;;;;5073498;28;19924;-72
2022/10/20 08:32:30;;;;;;;;;;;8.00;99.90;;;;;;5078038;28;19992;-72
2022/10/20 08:34:55;;;;;;;;;;;8.00;99.90;;;;;;5074363;28;19975;-73
2022/10/20 08:37:21;;;;;;;;;;;8.00;99.90;;;;;;5074551;28;19924;-74
2022/10/20 08:39:47;;;;;;;;;;;8.10;99.90;;;;;;5071754;28;19932;-73
2022/10/20 08:42:12;;;;;;;;;;;8.10;99.90;;;;;;5071082;28;19948;-72
2022/10/20 08:44:39;;;;;;;;;;;8.20;99.90;;;;;;5071766;28;19954;-73
2022/10/20 08:47:13;;;;;;;;;;;8.30;99.90;;;;;;5105814;28;20019;-73
2022/10/20 08:49:39;;;;;;;;;;;8.40;99.90;;;;;;5071562;28;19928;-74
2022/10/20 08:52:10;;;;;;;;;;;8.40;99.90;;;;;;5105542;28;19930;-72
2022/10/20 08:54:35;;;;;;;;;;;8.50;99.90;;;;;;5073466;28;19924;-73
2022/10/20 08:57:01;;;;;;;;;;;8.60;99.90;;;;;;5068952;28;19924;-73
2022/10/20 08:59:28;;;;;;;;;;;8.60;99.90;;;;;;5087076;28;19924;-73
2022/10/20 09:01:55;;;;;;;;;;;8.70;99.90;;;;;;5105504;28;19925;-71
2022/10/20 09:04:26;;;;;;;;;;;8.70;99.90;;;;;;5071803;28;19932;-72
2022/10/20 09:07:00;;;;;;;;;;;8.70;99.90;;;;;;5072667;28;19924;-73
2022/10/20 09:09:27;;;;;;;;;;;8.80;99.90;;;;;;5104978;28;19928;-73
2022/10/20 09:11:55;;;;;;;;;;;8.90;99.90;;;;;;5072679;28;19932;-75
2022/10/20 09:14:20;;;;;;;;;;;8.90;99.90;;;;;;5069058;28;19925;-71
2022/10/20 09:16:46;;;;;;;;;;;9.00;99.90;;;;;;5070104;28;19931;-70
2022/10/20 09:19:19;;;;;;;;;;;9.10;99.90;;;;;;5070876;28;19931;-73
2022/10/20 09:21:47;;;;;;;;;;;9.20;99.90;;;;;;5087408;28;19931;-73
2022/10/20 09:24:13;;;;;;;;;;;9.30;99.90;;;;;;5070377;28;20025;-72
2022/10/20 09:26:45;;;;;;;;;;;9.30;99.90;;;;;;5087689;28;20339;-72
2022/10/20 09:29:13;;;;;;;;;;;9.40;99.90;;;;;;5069226;28;19928;-72
2022/10/20 09:31:43;;;;;;;;;;;9.50;99.90;;;;;;5069638;28;19928;-73
2022/10/20 09:34:21;;;;;;;;;;;9.50;99.90;;;;;;5087688;28;20040;-72
2022/10/20 09:36:47;;;;;;;;;;;9.70;99.90;;;;;;5071355;28;20309;-74
2022/10/20 09:39:20;;;;;;;;;;;9.70;99.90;;;;;;5103889;28;19924;-72
2022/10/20 09:41:47;;;;;;;;;;;9.70;99.90;;;;;;5072157;28;19972;-75
2022/10/20 09:44:22;;;;;;;;;;;9.70;99.90;;;;;;5070801;28;19928;-71
2022/10/20 09:46:50;;;;;;;;;;;9.80;99.90;;;;;;5072313;28;19924;-73
2022/10/20 09:49:36;;;;;;;;;;;9.90;99.90;;;;;;5072378;28;20007;-74
2022/10/20 09:52:02;;;;;;;;;;;9.90;99.90;;;;;;5104266;28;19928;-71
2022/10/20 09:54:28;;;;;;;;;;;10.00;99.90;;;;;;5071175;28;20018;-71
2022/10/20 09:57:02;;;;;;;;;;;10.00;99.90;;;;;;5084877;28;19978;-69
2022/10/20 09:59:33;;;;;;;;;;;10.10;99.90;;;;;;5069958;28;19995;-70
2022/10/20 10:02:00;;;;;;;;;;;10.10;99.90;;;;;;5067827;28;20018;-69
2022/10/20 10:04:33;;;;;;;;;;;10.20;99.90;;;;;;5070322;28;19978;-69
2022/10/20 10:06:59;;;;;;;;;;;10.20;99.90;;;;;;5069664;28;19925;-70
2022/10/20 10:09:25;;;;;;;;;;;10.30;99.90;;;;;;5071419;28;19928;-71
2022/10/20 10:12:09;;;;;;;;;;;10.40;99.90;;;;;;5103757;28;19931;-70
2022/10/20 10:14:35;;;;;;;;;;;10.40;99.90;;;;;;5069738;28;19924;-70
2022/10/20 10:17:00;;;;;;;;;;;10.50;99.90;;;;;;5104586;28;20051;-71
2022/10/20 10:19:28;;;;;;;;;;;10.60;99.90;;;;;;5104543;28;20359;-71
2022/10/20 10:21:55;;;;;;;;;;;10.60;99.90;;;;;;5070834;28;19931;-70
2022/10/20 10:24:29;;;;;;;;;;;10.70;99.90;;;;;;5070328;28;19924;-71
2022/10/20 10:26:55;;;;;;;;;;;10.70;99.90;;;;;;5071758;28;19930;-72
2022/10/20 10:29:28;;;;;;;;;;;10.70;99.90;;;;;;5071386;28;20472;-71
2022/10/20 10:32:13;;;;;;;;;;;10.80;99.90;;;;;;5104192;28;19978;-72
2022/10/20 10:34:48;;;;;;;;;;;10.80;99.90;;;;;;5070375;28;20351;-69
2022/10/20 10:37:16;;;;;;;;;;;10.90;99.90;;;;;;5103055;28;20313;-71
2022/10/20 10:39:42;;;;;;;;;;;10.90;99.90;;;;;;5103922;28;19929;-70
2022/10/20 10:42:26;;;;;;;;;;;11.00;99.90;;;;;;5068131;28;20011;-70
2022/10/20 10:45:04;;;;;;;;;;;11.20;99.90;;;;;;5071245;28;19972;-70
2022/10/20 10:47:30;;;;;;;;;;;11.20;99.90;;;;;;5067685;28;19928;-71
2022/10/20 10:50:19;;;;;;;;;;;11.30;99.90;;;;;;5071520;28;19925;-71
2022/10/20 10:52:51;;;;;;;;;;;11.40;99.90;;;;;;5102141;28;19929;-70
2022/10/20 10:55:17;;;;;;;;;;;11.40;99.90;;;;;;5085910;28;19931;-71
2022/10/20 10:58:01;;;;;;;;;;;11.50;99.90;;;;;;5068926;28;20287;-73
2022/10/20 11:00:37;;;;;;;;;;;11.60;99.90;;;;;;5069593;28;19932;-70
2022/10/20 11:03:23;;;;;;;;;;;11.60;99.90;;;;;;5071347;28;20015;-70
2022/10/20 11:05:59;;;;;;;;;;;11.70;99.90;;;;;;5067948;28;20157;-70
2022/10/20 11:08:34;;;;;;;;;;;11.80;99.90;;;;;;5071997;28;19929;-70
2022/10/20 11:11:05;;;;;;;;;;;11.80;99.90;;;;;;5107698;28;20019;-70
2022/10/20 11:13:34;;;;;;;;;;;11.90;99.90;;;;;;5074679;28;19925;-70
2022/10/20 11:16:09;;;;;;;;;;;12.00;99.90;;;;;;5073662;28;19931;-71
2022/10/20 11:18:40;;;;;;;;;;;12.10;99.90;;;;;;5074622;28;20284;-70
2022/10/20 11:21:06;;;;;;;;;;;12.10;99.90;;;;;;5107958;28;19925;-70
2022/10/20 11:23:47;;;;;;;;;;;12.20;99.90;;;;;;5106351;28;20024;-71
2022/10/20 11:26:13;;;;;;;;;;;12.30;99.90;;;;;;5106998;28;19932;-66
2022/10/20 11:28:46;;;;;;;;;;;12.30;99.90;;;;;;5073714;28;20337;-67
2022/10/20 11:31:35;;;;;;;;;;;12.20;99.90;;;;;;5071788;28;19924;-66
2022/10/20 11:34:17;;;;;;;;;;;12.30;99.90;;;;;;5070115;28;20303;-67
2022/10/20 11:36:52;;;;;;;;;;;12.30;99.90;;;;;;5073274;28;19970;-68
2022/10/20 11:39:37;;;;;;;;;;;12.30;99.90;;;;;;5074025;28;19924;-66
2022/10/20 11:42:29;;;;;;;;;;;12.40;99.90;;;;;;5074143;28;20299;-67
2022/10/20 11:44:55;;;;;;;;;;;12.30;99.90;;;;;;5072282;28;19928;-67
2022/10/20 11:47:47;;;;;;;;;;;12.40;99.90;;;;;;5073731;28;19924;-67
2022/10/20 11:50:18;;;;;;;;;;;12.40;99.90;;;;;;5073651;28;19924;-66
2022/10/20 11:53:00;;;;;;;;;;;12.30;99.90;;;;;;5074300;28;20054;-66
2022/10/20 11:55:28;;;;;;;;;;;12.30;99.90;;;;;;5073743;28;19928;-66
2022/10/20 11:58:00;;;;;;;;;;;12.40;99.90;;;;;;5073922;28;19957;-66
2022/10/20 12:00:38;;;;;;;;;;;12.30;99.90;;;;;;5089367;28;19928;-65
2022/10/20 12:03:15;;;;;;;;;;;12.40;99.90;;;;;;5073068;28;19925;-66
2022/10/20 12:05:52;;;;;;;;;;;12.40;99.90;;;;;;5074005;28;20325;-66
2022/10/20 12:08:30;;;;;;;;;;;12.50;99.90;;;;;;5072590;28;19929;-66
2022/10/20 12:10:55;;;;;;;;;;;12.50;99.90;;;;;;5072616;28;20017;-66
2022/10/20 12:13:40;;;;;;;;;;;12.50;99.90;;;;;;5072994;28;19994;-67
2022/10/20 12:16:05;;;;;;;;;;;12.50;99.90;;;;;;5070947;28;20394;-66
2022/10/20 12:18:33;;;;;;;;;;;12.50;99.90;;;;;;5105840;28;19975;-66
2022/10/20 12:21:00;;;;;;;;;;;12.60;99.90;;;;;;5089114;28;19999;-67
2022/10/20 12:23:41;;;;;;;;;;;12.60;99.90;;;;;;5073108;28;19931;-66
2022/10/20 12:26:27;;;;;;;;;;;12.60;99.90;;;;;;5072895;28;19924;-66
2022/10/20 12:28:52;;;;;;;;;;;12.60;99.90;;;;;;5072336;28;19925;-66
2022/10/20 12:31:18;;;;;;;;;;;12.60;99.90;;;;;;5072935;28;20057;-67
2022/10/20 12:33:53;;;;;;;;;;;12.50;99.90;;;;;;5088902;28;19974;-66
2022/10/20 12:36:18;;;;;;;;;;;12.50;99.90;;;;;;5072357;28;19929;-66
2022/10/20 12:39:05;;;;;;;;;;;12.50;99.90;;;;;;5072396;28;19932;-66
2022/10/20 12:41:33;;;;;;;;;;;12.50;99.90;;;;;;5087928;28;20018;-66
2022/10/20 12:44:03;;;;;;;;;;;12.50;99.90;;;;;;5073067;28;19928;-65
2022/10/20 12:46:30;;;;;;;;;;;12.60;99.90;;;;;;5072863;28;19932;-66
2022/10/20 12:49:04;;;;;;;;;;;12.50;99.90;;;;;;5073022;28;20015;-65
2022/10/20 12:51:33;;;;;;;;;;;12.50;99.90;;;;;;5072456;28;19990;-66
2022/10/20 12:53:59;;;;;;;;;;;;;;;;;;5072865;28;20323;-66
2022/10/20 12:56:26;;;;;;;;;;;12.50;99.90;;;;;;5071675;28;20018;-66
2022/10/20 12:59:19;;;;;;;;;;;12.40;99.90;;;;;;5072798;28;19924;-66
2022/10/20 13:02:03;;;;;;;;;;;12.40;99.90;;;;;;5072668;28;19975;-65
2022/10/20 13:04:47;;;;;;;;;;;12.40;99.90;;;;;;5072608;28;20015;-65
2022/10/20 13:07:13;;;;;;;;;;;12.40;99.90;;;;;;5072937;28;19943;-66
2022/10/20 13:09:54;;;;;;;;;;;12.40;99.90;;;;;;5071700;28;19925;-66
2022/10/20 13:12:28;;;;;;;;;;;12.30;99.90;;;;;;5072415;28;20386;-66
2022/10/20 13:15:01;;;;;;;;;;;12.30;99.90;;;;;;5072975;28;19924;-66
2022/10/20 13:17:36;;;;;;;;;;;12.20;99.90;;;;;;5071097;28;20391;-67
2022/10/20 13:20:14;;;;;;;;;;;12.20;99.90;;;;;;5105855;28;20402;-66
2022/10/20 13:22:43;;;;;;;;;;;12.10;99.90;;;;;;5088131;28;19933;-66
2022/10/20 13:25:13;;;;;;;;;;;12.10;99.90;;;;;;5071407;28;19928;-66
2022/10/20 13:27:40;;;;;;;;;;;12.10;99.90;;;;;;5087086;28;20319;-66
2022/10/20 13:30:06;;;;;;;;;;;12.00;99.90;;;;;;5072666;28;19962;-67
2022/10/20 13:32:36;;;;;;;;;;;12.00;99.90;;;;;;5072186;28;20073;-67
2022/10/20 13:35:15;;;;;;;;;;;12.00;99.90;;;;;;5072391;28;19932;-66
2022/10/20 13:37:51;;;;;;;;;;;11.90;99.90;;;;;;5072419;28;19924;-67
2022/10/20 13:40:20;;;;;;;;;;;11.90;99.90;;;;;;5072609;28;19924;-66
2022/10/20 13:42:57;;;;;;;;;;;11.90;99.90;;;;;;5085530;28;19921;-67
2022/10/20 13:45:23;;;;;;;;;;;11.90;99.90;;;;;;5087356;28;19966;-66
2022/10/20 13:47:57;;;;;;;;;;;11.90;99.90;;;;;;5071822;28;19971;-67
2022/10/20 13:50:31;;;;;;;;;;;11.90;99.90;;;;;;5105027;28;20375;-67
2022/10/20 13:52:58;;;;;;;;;;;11.90;99.90;;;;;;5071012;28;19925;-67
2022/10/20 13:55:25;;;;;;;;;;;11.90;99.90;;;;;;5087678;28;20014;-68
2022/10/20 13:57:56;;;;;;;;;;;11.80;99.90;;;;;;5071975;28;19928;-67
2022/10/20 14:00:23;;;;;;;;;;;11.80;99.90;;;;;;5087796;28;19925;-67
2022/10/20 14:03:12;;;;;;;;;;;11.90;99.90;;;;;;5071443;28;20527;-67
2022/10/20 14:05:38;;;;;;;;;;;11.80;99.90;;;;;;5067676;28;20405;-68
2022/10/20 14:08:10;;;;;;;;;;;11.80;99.90;;;;;;5071008;28;19964;-67
2022/10/20 14:10:48;;;;;;;;;;;11.80;99.90;;;;;;5071713;28;19970;-67
2022/10/20 14:13:15;;;;;;;;;;;11.80;99.90;;;;;;5070989;28;19924;-67
2022/10/20 14:15:44;;;;;;;;;;;11.80;99.90;;;;;;5070163;28;20386;-67
2022/10/20 14:18:19;;;;;;;;;;;11.80;99.90;;;;;;5070727;28;19925;-67
2022/10/20 14:20:52;;;;;;;;;;;11.80;99.90;;;;;;5071890;28;19970;-66
2022/10/20 14:23:17;;;;;;;;;;;11.70;99.90;;;;;;5087521;28;20313;-67
2022/10/20 14:25:44;;;;;;;;;;;11.70;99.90;;;;;;5070277;28;19964;-67
2022/10/20 14:28:13;;;;;;;;;;;11.70;99.90;;;;;;5071093;28;19925;-67
2022/10/20 14:30:38;;;;;;;;;;;11.70;99.90;;;;;;5104220;28;19935;-66
2022/10/20 14:33:05;;;;;;;;;;;11.60;99.90;;;;;;5070492;28;19925;-67
2022/10/20 14:35:38;;;;;;;;;;;11.70;99.90;;;;;;5104615;28;19976;-68